Terminal Aerodrome Forecast
Issued by NWS Wakefield, VA

Home | Current Version | Previous Version | Text Only | Print | Product List | Glossary On
Versions: 1 2 3 4 5 6 7 8 9 10 11 12 13 14 15 16 17 18 19 20 21 22 23 24
902
FTUS41 KAKQ 230603 RRA
TAFRIC
TAF
KRIC 230603Z 2306/2406 34004KT 4SM RA BR SCT007 BKN025 OVC045
     FM231200 03007KT P6SM VCSH OVC035
     FM231500 04007KT P6SM -SHRA OVC050
     FM231600 05007KT P6SM -SHRA OVC025
     FM232200 09006KT 6SM -SHRA OVC012=

USA.gov is the U.S. government's official web portal to all federal, state and local government web resources and services.